sensor_id;sensor_type;location;lat;lon;timestamp;P1;durP1;ratioP1;P2;durP2;ratioP2
77520;SDS011;66633;47.628;19.158;2023-12-20T00:01:14;56.17;;;16.35;;
77520;SDS011;66633;47.628;19.158;2023-12-20T00:03:39;108.23;;;20.13;;
77520;SDS011;66633;47.628;19.158;2023-12-20T00:06:04;49.20;;;13.70;;
77520;SDS011;66633;47.628;19.158;2023-12-20T00:08:30;38.10;;;13.13;;
77520;SDS011;66633;47.628;19.158;2023-12-20T00:10:55;92.03;;;19.40;;
77520;SDS011;66633;47.628;19.158;2023-12-20T00:13:20;38.27;;;13.03;;
77520;SDS011;66633;47.628;19.158;2023-12-20T00:15:45;36.37;;;12.83;;
77520;SDS011;66633;47.628;19.158;2023-12-20T00:18:11;41.83;;;13.80;;
77520;SDS011;66633;47.628;19.158;2023-12-20T00:20:36;48.83;;;14.13;;
77520;SDS011;66633;47.628;19.158;2023-12-20T00:23:01;44.92;;;12.73;;
77520;SDS011;66633;47.628;19.158;2023-12-20T00:25:27;68.47;;;15.52;;
77520;SDS011;66633;47.628;19.158;2023-12-20T00:27:52;73.47;;;15.47;;
77520;SDS011;66633;47.628;19.158;2023-12-20T00:30:18;53.67;;;14.25;;
77520;SDS011;66633;47.628;19.158;2023-12-20T00:32:43;47.33;;;14.35;;
77520;SDS011;66633;47.628;19.158;2023-12-20T00:35:14;68.30;;;15.80;;
77520;SDS011;66633;47.628;19.158;2023-12-20T00:37:39;56.83;;;15.30;;
77520;SDS011;66633;47.628;19.158;2023-12-20T00:40:05;43.13;;;14.63;;
77520;SDS011;66633;47.628;19.158;2023-12-20T00:42:30;44.88;;;14.38;;
77520;SDS011;66633;47.628;19.158;2023-12-20T00:44:55;61.22;;;16.67;;
77520;SDS011;66633;47.628;19.158;2023-12-20T00:47:21;46.67;;;14.80;;
77520;SDS011;66633;47.628;19.158;2023-12-20T00:49:47;44.33;;;13.88;;
77520;SDS011;66633;47.628;19.158;2023-12-20T00:52:12;53.63;;;16.67;;
77520;SDS011;66633;47.628;19.158;2023-12-20T00:54:37;61.17;;;16.00;;
77520;SDS011;66633;47.628;19.158;2023-12-20T00:57:02;60.97;;;16.37;;
77520;SDS011;66633;47.628;19.158;2023-12-20T00:59:28;41.78;;;13.70;;
77520;SDS011;66633;47.628;19.158;2023-12-20T01:01:53;48.93;;;14.63;;
77520;SDS011;66633;47.628;19.158;2023-12-20T01:04:18;48.00;;;14.63;;
77520;SDS011;66633;47.628;19.158;2023-12-20T01:06:43;42.10;;;14.07;;
77520;SDS011;66633;47.628;19.158;2023-12-20T01:09:09;51.13;;;14.90;;
77520;SDS011;66633;47.628;19.158;2023-12-20T01:11:34;40.83;;;14.47;;
77520;SDS011;66633;47.628;19.158;2023-12-20T01:13:59;46.30;;;15.17;;
77520;SDS011;66633;47.628;19.158;2023-12-20T01:16:24;43.37;;;13.93;;
77520;SDS011;66633;47.628;19.158;2023-12-20T01:18:50;45.70;;;13.63;;
77520;SDS011;66633;47.628;19.158;2023-12-20T01:21:15;49.67;;;14.03;;
77520;SDS011;66633;47.628;19.158;2023-12-20T01:23:40;40.67;;;13.90;;
77520;SDS011;66633;47.628;19.158;2023-12-20T01:26:05;43.80;;;14.07;;
77520;SDS011;66633;47.628;19.158;2023-12-20T01:28:31;52.07;;;14.30;;
77520;SDS011;66633;47.628;19.158;2023-12-20T01:30:56;40.95;;;13.38;;
77520;SDS011;66633;47.628;19.158;2023-12-20T01:33:22;38.13;;;13.45;;
77520;SDS011;66633;47.628;19.158;2023-12-20T01:35:47;32.23;;;11.13;;
77520;SDS011;66633;47.628;19.158;2023-12-20T01:38:12;48.47;;;13.47;;
77520;SDS011;66633;47.628;19.158;2023-12-20T01:40:37;58.07;;;14.73;;
77520;SDS011;66633;47.628;19.158;2023-12-20T01:43:06;48.80;;;12.33;;
77520;SDS011;66633;47.628;19.158;2023-12-20T01:45:31;55.40;;;13.82;;
77520;SDS011;66633;47.628;19.158;2023-12-20T01:47:57;46.13;;;13.63;;
77520;SDS011;66633;47.628;19.158;2023-12-20T01:50:23;51.15;;;13.40;;
77520;SDS011;66633;47.628;19.158;2023-12-20T01:52:49;95.73;;;17.30;;
77520;SDS011;66633;47.628;19.158;2023-12-20T01:55:17;116.55;;;21.58;;
77520;SDS011;66633;47.628;19.158;2023-12-20T01:57:42;113.50;;;21.73;;
77520;SDS011;66633;47.628;19.158;2023-12-20T02:00:08;80.57;;;15.45;;
77520;SDS011;66633;47.628;19.158;2023-12-20T02:02:34;89.35;;;17.23;;
77520;SDS011;66633;47.628;19.158;2023-12-20T02:05:00;81.57;;;16.52;;
77520;SDS011;66633;47.628;19.158;2023-12-20T02:07:27;62.03;;;16.63;;
77520;SDS011;66633;47.628;19.158;2023-12-20T02:09:52;45.20;;;13.95;;
77520;SDS011;66633;47.628;19.158;2023-12-20T02:12:17;82.88;;;16.88;;
77520;SDS011;66633;47.628;19.158;2023-12-20T02:14:43;66.82;;;14.50;;
77520;SDS011;66633;47.628;19.158;2023-12-20T02:17:09;58.58;;;15.52;;
77520;SDS011;66633;47.628;19.158;2023-12-20T02:19:34;90.87;;;17.70;;
77520;SDS011;66633;47.628;19.158;2023-12-20T02:22:12;60.42;;;16.40;;
77520;SDS011;66633;47.628;19.158;2023-12-20T02:24:38;78.18;;;17.08;;
77520;SDS011;66633;47.628;19.158;2023-12-20T02:27:04;128.80;;;21.77;;
77520;SDS011;66633;47.628;19.158;2023-12-20T02:29:30;100.50;;;18.25;;
77520;SDS011;66633;47.628;19.158;2023-12-20T02:31:55;103.28;;;19.70;;
77520;SDS011;66633;47.628;19.158;2023-12-20T02:34:21;87.07;;;17.77;;
77520;SDS011;66633;47.628;19.158;2023-12-20T02:36:46;68.17;;;13.17;;
77520;SDS011;66633;47.628;19.158;2023-12-20T02:39:11;57.87;;;14.00;;
77520;SDS011;66633;47.628;19.158;2023-12-20T02:41:36;52.00;;;11.83;;
77520;SDS011;66633;47.628;19.158;2023-12-20T02:44:02;70.53;;;13.60;;
77520;SDS011;66633;47.628;19.158;2023-12-20T02:46:27;74.47;;;13.63;;
77520;SDS011;66633;47.628;19.158;2023-12-20T02:48:52;53.23;;;12.00;;
77520;SDS011;66633;47.628;19.158;2023-12-20T02:51:17;63.57;;;14.23;;
77520;SDS011;66633;47.628;19.158;2023-12-20T02:53:43;58.80;;;13.43;;
77520;SDS011;66633;47.628;19.158;2023-12-20T02:56:08;77.53;;;14.80;;
77520;SDS011;66633;47.628;19.158;2023-12-20T02:58:33;47.13;;;13.67;;
77520;SDS011;66633;47.628;19.158;2023-12-20T03:00:59;73.10;;;16.95;;
77520;SDS011;66633;47.628;19.158;2023-12-20T03:03:24;118.65;;;21.02;;
77520;SDS011;66633;47.628;19.158;2023-12-20T03:05:50;171.60;;;26.13;;
77520;SDS011;66633;47.628;19.158;2023-12-20T03:08:15;68.63;;;15.02;;
77520;SDS011;66633;47.628;19.158;2023-12-20T03:10:40;87.30;;;16.83;;
77520;SDS011;66633;47.628;19.158;2023-12-20T03:13:05;73.80;;;14.97;;
77520;SDS011;66633;47.628;19.158;2023-12-20T03:15:31;76.97;;;16.60;;
77520;SDS011;66633;47.628;19.158;2023-12-20T03:17:56;133.07;;;21.67;;
77520;SDS011;66633;47.628;19.158;2023-12-20T03:20:21;168.60;;;25.93;;
77520;SDS011;66633;47.628;19.158;2023-12-20T03:22:46;248.63;;;28.07;;
77520;SDS011;66633;47.628;19.158;2023-12-20T03:25:12;166.10;;;25.67;;
77520;SDS011;66633;47.628;19.158;2023-12-20T03:27:37;199.48;;;27.45;;
77520;SDS011;66633;47.628;19.158;2023-12-20T03:30:04;148.43;;;26.00;;
77520;SDS011;66633;47.628;19.158;2023-12-20T03:32:29;143.18;;;24.90;;
77520;SDS011;66633;47.628;19.158;2023-12-20T03:34:54;77.05;;;17.17;;
77520;SDS011;66633;47.628;19.158;2023-12-20T03:37:21;175.70;;;25.00;;
77520;SDS011;66633;47.628;19.158;2023-12-20T03:39:46;116.38;;;21.23;;
77520;SDS011;66633;47.628;19.158;2023-12-20T03:42:11;96.90;;;20.90;;
77520;SDS011;66633;47.628;19.158;2023-12-20T03:44:38;95.10;;;17.52;;
77520;SDS011;66633;47.628;19.158;2023-12-20T03:47:03;171.32;;;25.50;;
77520;SDS011;66633;47.628;19.158;2023-12-20T03:49:28;128.80;;;25.23;;
77520;SDS011;66633;47.628;19.158;2023-12-20T03:51:54;230.87;;;45.70;;
77520;SDS011;66633;47.628;19.158;2023-12-20T03:54:19;338.27;;;71.87;;
77520;SDS011;66633;47.628;19.158;2023-12-20T03:56:44;181.40;;;47.80;;
77520;SDS011;66633;47.628;19.158;2023-12-20T03:59:09;165.67;;;38.93;;
77520;SDS011;66633;47.628;19.158;2023-12-20T04:01:35;93.05;;;20.95;;
77520;SDS011;66633;47.628;19.158;2023-12-20T04:04:00;71.95;;;17.60;;
77520;SDS011;66633;47.628;19.158;2023-12-20T04:06:26;57.10;;;16.23;;
77520;SDS011;66633;47.628;19.158;2023-12-20T04:08:51;71.87;;;17.23;;
77520;SDS011;66633;47.628;19.158;2023-12-20T04:11:17;58.05;;;15.73;;
77520;SDS011;66633;47.628;19.158;2023-12-20T04:13:42;45.90;;;14.30;;
77520;SDS011;66633;47.628;19.158;2023-12-20T04:16:07;45.67;;;12.60;;
77520;SDS011;66633;47.628;19.158;2023-12-20T04:18:33;103.93;;;27.73;;
77520;SDS011;66633;47.628;19.158;2023-12-20T04:20:58;80.53;;;22.93;;
77520;SDS011;66633;47.628;19.158;2023-12-20T04:23:23;102.25;;;21.85;;
77520;SDS011;66633;47.628;19.158;2023-12-20T04:25:48;73.30;;;17.37;;
77520;SDS011;66633;47.628;19.158;2023-12-20T04:28:14;174.07;;;42.42;;
77520;SDS011;66633;47.628;19.158;2023-12-20T04:30:39;90.77;;;24.10;;
77520;SDS011;66633;47.628;19.158;2023-12-20T04:33:04;74.20;;;19.77;;
77520;SDS011;66633;47.628;19.158;2023-12-20T04:35:31;60.75;;;16.60;;
77520;SDS011;66633;47.628;19.158;2023-12-20T04:37:56;41.50;;;14.57;;
77520;SDS011;66633;47.628;19.158;2023-12-20T04:40:21;55.87;;;14.17;;
77520;SDS011;66633;47.628;19.158;2023-12-20T04:42:46;55.53;;;16.63;;
77520;SDS011;66633;47.628;19.158;2023-12-20T04:45:12;59.70;;;16.25;;
77520;SDS011;66633;47.628;19.158;2023-12-20T04:47:38;36.90;;;13.50;;
77520;SDS011;66633;47.628;19.158;2023-12-20T04:50:04;50.10;;;15.33;;
77520;SDS011;66633;47.628;19.158;2023-12-20T04:52:29;43.65;;;12.73;;
77520;SDS011;66633;47.628;19.158;2023-12-20T04:54:54;42.30;;;13.60;;
77520;SDS011;66633;47.628;19.158;2023-12-20T04:57:20;53.17;;;14.03;;
77520;SDS011;66633;47.628;19.158;2023-12-20T04:59:45;33.10;;;11.88;;
77520;SDS011;66633;47.628;19.158;2023-12-20T05:02:10;46.73;;;13.63;;
77520;SDS011;66633;47.628;19.158;2023-12-20T05:04:36;49.28;;;14.38;;
77520;SDS011;66633;47.628;19.158;2023-12-20T05:07:01;105.37;;;22.57;;
77520;SDS011;66633;47.628;19.158;2023-12-20T05:09:27;72.38;;;17.52;;
77520;SDS011;66633;47.628;19.158;2023-12-20T05:11:52;60.23;;;13.77;;
77520;SDS011;66633;47.628;19.158;2023-12-20T05:14:17;42.97;;;13.13;;
77520;SDS011;66633;47.628;19.158;2023-12-20T05:16:42;53.03;;;14.67;;
77520;SDS011;66633;47.628;19.158;2023-12-20T05:19:08;39.83;;;12.88;;
77520;SDS011;66633;47.628;19.158;2023-12-20T05:21:33;74.17;;;16.13;;
77520;SDS011;66633;47.628;19.158;2023-12-20T05:23:59;65.50;;;16.23;;
77520;SDS011;66633;47.628;19.158;2023-12-20T05:26:24;50.17;;;14.55;;
77520;SDS011;66633;47.628;19.158;2023-12-20T05:28:49;57.10;;;13.87;;
77520;SDS011;66633;47.628;19.158;2023-12-20T05:31:15;65.03;;;14.23;;
77520;SDS011;66633;47.628;19.158;2023-12-20T05:33:40;55.28;;;15.60;;
77520;SDS011;66633;47.628;19.158;2023-12-20T05:36:06;57.77;;;15.63;;
77520;SDS011;66633;47.628;19.158;2023-12-20T05:38:36;45.83;;;13.13;;
77520;SDS011;66633;47.628;19.158;2023-12-20T05:41:01;62.93;;;17.00;;
77520;SDS011;66633;47.628;19.158;2023-12-20T05:43:26;40.58;;;14.00;;
77520;SDS011;66633;47.628;19.158;2023-12-20T05:45:51;80.90;;;15.30;;
77520;SDS011;66633;47.628;19.158;2023-12-20T05:48:17;44.80;;;13.07;;
77520;SDS011;66633;47.628;19.158;2023-12-20T05:50:42;60.47;;;14.05;;
77520;SDS011;66633;47.628;19.158;2023-12-20T05:53:07;87.30;;;15.70;;
77520;SDS011;66633;47.628;19.158;2023-12-20T05:55:32;107.45;;;19.45;;
77520;SDS011;66633;47.628;19.158;2023-12-20T05:57:58;41.78;;;12.75;;
77520;SDS011;66633;47.628;19.158;2023-12-20T06:00:23;57.25;;;14.80;;
77520;SDS011;66633;47.628;19.158;2023-12-20T06:02:48;59.05;;;14.00;;
77520;SDS011;66633;47.628;19.158;2023-12-20T06:05:14;67.97;;;16.23;;
77520;SDS011;66633;47.628;19.158;2023-12-20T06:07:39;58.57;;;12.60;;
77520;SDS011;66633;47.628;19.158;2023-12-20T06:10:04;90.77;;;13.23;;
77520;SDS011;66633;47.628;19.158;2023-12-20T06:12:31;82.85;;;14.15;;
77520;SDS011;66633;47.628;19.158;2023-12-20T06:14:58;112.60;;;17.63;;
77520;SDS011;66633;47.628;19.158;2023-12-20T06:17:23;51.00;;;14.60;;
77520;SDS011;66633;47.628;19.158;2023-12-20T06:19:48;119.70;;;19.33;;
77520;SDS011;66633;47.628;19.158;2023-12-20T06:22:14;52.00;;;13.03;;
77520;SDS011;66633;47.628;19.158;2023-12-20T06:24:40;114.15;;;16.20;;
77520;SDS011;66633;47.628;19.158;2023-12-20T06:27:05;94.30;;;14.80;;
77520;SDS011;66633;47.628;19.158;2023-12-20T06:29:30;132.85;;;22.38;;
77520;SDS011;66633;47.628;19.158;2023-12-20T06:31:56;116.00;;;17.08;;
77520;SDS011;66633;47.628;19.158;2023-12-20T06:34:21;167.73;;;22.90;;
77520;SDS011;66633;47.628;19.158;2023-12-20T06:36:46;59.87;;;12.90;;
77520;SDS011;66633;47.628;19.158;2023-12-20T06:39:11;141.30;;;19.37;;
77520;SDS011;66633;47.628;19.158;2023-12-20T06:41:37;152.23;;;23.52;;
77520;SDS011;66633;47.628;19.158;2023-12-20T06:44:03;221.82;;;26.60;;
77520;SDS011;66633;47.628;19.158;2023-12-20T06:46:28;201.32;;;26.17;;
77520;SDS011;66633;47.628;19.158;2023-12-20T06:48:53;259.95;;;30.73;;
77520;SDS011;66633;47.628;19.158;2023-12-20T06:51:18;262.87;;;35.53;;
77520;SDS011;66633;47.628;19.158;2023-12-20T06:53:45;118.32;;;23.63;;
77520;SDS011;66633;47.628;19.158;2023-12-20T06:56:11;68.27;;;17.93;;
77520;SDS011;66633;47.628;19.158;2023-12-20T06:58:39;128.90;;;21.42;;
77520;SDS011;66633;47.628;19.158;2023-12-20T07:01:05;71.37;;;17.30;;
77520;SDS011;66633;47.628;19.158;2023-12-20T07:03:30;101.00;;;17.50;;
77520;SDS011;66633;47.628;19.158;2023-12-20T07:05:55;108.87;;;15.73;;
77520;SDS011;66633;47.628;19.158;2023-12-20T07:08:20;42.35;;;12.55;;
77520;SDS011;66633;47.628;19.158;2023-12-20T07:10:46;81.40;;;18.87;;
77520;SDS011;66633;47.628;19.158;2023-12-20T07:13:11;83.50;;;15.73;;
77520;SDS011;66633;47.628;19.158;2023-12-20T07:15:37;84.13;;;15.75;;
77520;SDS011;66633;47.628;19.158;2023-12-20T07:18:02;101.20;;;18.17;;
77520;SDS011;66633;47.628;19.158;2023-12-20T07:20:27;81.25;;;16.73;;
77520;SDS011;66633;47.628;19.158;2023-12-20T07:22:53;97.18;;;17.35;;
77520;SDS011;66633;47.628;19.158;2023-12-20T07:25:18;199.87;;;30.80;;
77520;SDS011;66633;47.628;19.158;2023-12-20T07:27:45;98.57;;;20.40;;
77520;SDS011;66633;47.628;19.158;2023-12-20T07:30:10;153.00;;;25.40;;
77520;SDS011;66633;47.628;19.158;2023-12-20T07:32:35;222.45;;;26.90;;
77520;SDS011;66633;47.628;19.158;2023-12-20T07:35:01;54.17;;;15.23;;
77520;SDS011;66633;47.628;19.158;2023-12-20T07:37:27;66.88;;;16.20;;
77520;SDS011;66633;47.628;19.158;2023-12-20T07:39:53;115.30;;;22.33;;
77520;SDS011;66633;47.628;19.158;2023-12-20T07:42:18;154.82;;;24.33;;
77520;SDS011;66633;47.628;19.158;2023-12-20T07:44:43;171.60;;;22.63;;
77520;SDS011;66633;47.628;19.158;2023-12-20T07:47:08;79.73;;;17.13;;
77520;SDS011;66633;47.628;19.158;2023-12-20T07:49:34;86.20;;;17.53;;
77520;SDS011;66633;47.628;19.158;2023-12-20T07:51:59;51.07;;;14.87;;
77520;SDS011;66633;47.628;19.158;2023-12-20T07:54:24;67.90;;;17.10;;
77520;SDS011;66633;47.628;19.158;2023-12-20T07:56:50;198.48;;;28.02;;
77520;SDS011;66633;47.628;19.158;2023-12-20T07:59:15;194.27;;;25.23;;
77520;SDS011;66633;47.628;19.158;2023-12-20T08:01:40;101.60;;;22.17;;
77520;SDS011;66633;47.628;19.158;2023-12-20T08:04:05;73.23;;;17.33;;
77520;SDS011;66633;47.628;19.158;2023-12-20T08:06:31;60.90;;;14.85;;
77520;SDS011;66633;47.628;19.158;2023-12-20T08:08:56;126.90;;;24.08;;
77520;SDS011;66633;47.628;19.158;2023-12-20T08:11:22;60.22;;;15.50;;
77520;SDS011;66633;47.628;19.158;2023-12-20T08:13:47;60.73;;;17.37;;
77520;SDS011;66633;47.628;19.158;2023-12-20T08:16:12;71.90;;;18.07;;
77520;SDS011;66633;47.628;19.158;2023-12-20T08:18:38;98.97;;;19.15;;
77520;SDS011;66633;47.628;19.158;2023-12-20T08:21:04;95.97;;;18.10;;
77520;SDS011;66633;47.628;19.158;2023-12-20T08:23:33;57.53;;;15.23;;
77520;SDS011;66633;47.628;19.158;2023-12-20T08:25:58;52.92;;;15.70;;
77520;SDS011;66633;47.628;19.158;2023-12-20T08:28:23;71.17;;;15.83;;
77520;SDS011;66633;47.628;19.158;2023-12-20T08:30:48;127.47;;;21.57;;
77520;SDS011;66633;47.628;19.158;2023-12-20T08:33:18;66.43;;;16.13;;
77520;SDS011;66633;47.628;19.158;2023-12-20T08:35:43;132.43;;;23.47;;
77520;SDS011;66633;47.628;19.158;2023-12-20T08:38:09;81.85;;;17.58;;
77520;SDS011;66633;47.628;19.158;2023-12-20T08:40:34;102.05;;;19.65;;
77520;SDS011;66633;47.628;19.158;2023-12-20T08:43:00;110.25;;;21.02;;
77520;SDS011;66633;47.628;19.158;2023-12-20T08:45:25;63.07;;;16.77;;
77520;SDS011;66633;47.628;19.158;2023-12-20T08:47:51;57.47;;;14.70;;
77520;SDS011;66633;47.628;19.158;2023-12-20T08:50:16;58.80;;;15.10;;
77520;SDS011;66633;47.628;19.158;2023-12-20T08:52:41;105.47;;;17.50;;
77520;SDS011;66633;47.628;19.158;2023-12-20T08:55:07;82.68;;;17.80;;
77520;SDS011;66633;47.628;19.158;2023-12-20T08:57:33;144.63;;;21.52;;
77520;SDS011;66633;47.628;19.158;2023-12-20T08:59:58;126.88;;;21.63;;
77520;SDS011;66633;47.628;19.158;2023-12-20T09:02:24;56.08;;;16.40;;
77520;SDS011;66633;47.628;19.158;2023-12-20T09:04:49;132.63;;;26.90;;
77520;SDS011;66633;47.628;19.158;2023-12-20T09:10:06;100.25;;;19.80;;
77520;SDS011;66633;47.628;19.158;2023-12-20T09:12:31;66.00;;;17.15;;
77520;SDS011;66633;47.628;19.158;2023-12-20T09:14:56;57.57;;;18.30;;
77520;SDS011;66633;47.628;19.158;2023-12-20T09:17:22;101.57;;;18.63;;
77520;SDS011;66633;47.628;19.158;2023-12-20T09:19:48;86.82;;;17.77;;
77520;SDS011;66633;47.628;19.158;2023-12-20T09:22:13;63.78;;;16.15;;
77520;SDS011;66633;47.628;19.158;2023-12-20T09:24:38;82.03;;;17.20;;
77520;SDS011;66633;47.628;19.158;2023-12-20T09:27:04;91.18;;;19.80;;
77520;SDS011;66633;47.628;19.158;2023-12-20T09:29:29;60.15;;;17.48;;
77520;SDS011;66633;47.628;19.158;2023-12-20T09:31:55;61.20;;;15.52;;
77520;SDS011;66633;47.628;19.158;2023-12-20T09:34:22;43.10;;;14.40;;
77520;SDS011;66633;47.628;19.158;2023-12-20T09:36:47;39.00;;;13.45;;
77520;SDS011;66633;47.628;19.158;2023-12-20T09:39:13;136.37;;;20.63;;
77520;SDS011;66633;47.628;19.158;2023-12-20T09:41:40;54.78;;;15.40;;
77520;SDS011;66633;47.628;19.158;2023-12-20T09:44:07;50.33;;;15.20;;
77520;SDS011;66633;47.628;19.158;2023-12-20T09:46:33;44.55;;;14.88;;
77520;SDS011;66633;47.628;19.158;2023-12-20T09:49:00;237.55;;;67.07;;
77520;SDS011;66633;47.628;19.158;2023-12-20T09:51:26;139.13;;;21.48;;
77520;SDS011;66633;47.628;19.158;2023-12-20T09:53:53;127.43;;;20.40;;
77520;SDS011;66633;47.628;19.158;2023-12-20T09:56:19;60.97;;;17.77;;
77520;SDS011;66633;47.628;19.158;2023-12-20T09:58:44;86.03;;;23.98;;
77520;SDS011;66633;47.628;19.158;2023-12-20T10:01:10;91.15;;;19.95;;
77520;SDS011;66633;47.628;19.158;2023-12-20T10:03:35;50.67;;;15.10;;
77520;SDS011;66633;47.628;19.158;2023-12-20T10:06:04;47.58;;;15.23;;
77520;SDS011;66633;47.628;19.158;2023-12-20T10:08:29;49.80;;;15.93;;
77520;SDS011;66633;47.628;19.158;2023-12-20T10:10:55;36.03;;;14.48;;
77520;SDS011;66633;47.628;19.158;2023-12-20T10:13:22;51.25;;;15.27;;
77520;SDS011;66633;47.628;19.158;2023-12-20T10:15:49;36.28;;;14.52;;
77520;SDS011;66633;47.628;19.158;2023-12-20T10:18:14;48.75;;;16.88;;
77520;SDS011;66633;47.628;19.158;2023-12-20T10:20:40;52.10;;;17.00;;
77520;SDS011;66633;47.628;19.158;2023-12-20T10:23:05;36.45;;;14.55;;
77520;SDS011;66633;47.628;19.158;2023-12-20T10:25:32;42.17;;;15.52;;
77520;SDS011;66633;47.628;19.158;2023-12-20T10:28:16;43.63;;;15.57;;
77520;SDS011;66633;47.628;19.158;2023-12-20T10:30:46;51.50;;;18.58;;
77520;SDS011;66633;47.628;19.158;2023-12-20T10:33:11;40.45;;;17.08;;
77520;SDS011;66633;47.628;19.158;2023-12-20T10:35:37;55.30;;;24.07;;
77520;SDS011;66633;47.628;19.158;2023-12-20T10:38:04;48.47;;;20.60;;
77520;SDS011;66633;47.628;19.158;2023-12-20T10:40:30;47.75;;;19.10;;
77520;SDS011;66633;47.628;19.158;2023-12-20T10:42:55;51.33;;;19.90;;
77520;SDS011;66633;47.628;19.158;2023-12-20T10:45:21;53.25;;;21.50;;
77520;SDS011;66633;47.628;19.158;2023-12-20T10:47:46;45.65;;;19.70;;
77520;SDS011;66633;47.628;19.158;2023-12-20T10:50:12;38.43;;;16.30;;
77520;SDS011;66633;47.628;19.158;2023-12-20T10:52:37;38.17;;;16.23;;
77520;SDS011;66633;47.628;19.158;2023-12-20T10:55:02;47.85;;;17.95;;
77520;SDS011;66633;47.628;19.158;2023-12-20T10:57:28;53.03;;;18.55;;
77520;SDS011;66633;47.628;19.158;2023-12-20T10:59:54;70.32;;;21.58;;
77520;SDS011;66633;47.628;19.158;2023-12-20T11:02:21;61.15;;;22.70;;
77520;SDS011;66633;47.628;19.158;2023-12-20T11:09:49;67.10;;;20.33;;
77520;SDS011;66633;47.628;19.158;2023-12-20T11:14:53;50.50;;;19.98;;
77520;SDS011;66633;47.628;19.158;2023-12-20T11:17:22;51.85;;;18.55;;
77520;SDS011;66633;47.628;19.158;2023-12-20T11:22:30;49.70;;;21.48;;
77520;SDS011;66633;47.628;19.158;2023-12-20T11:25:05;45.42;;;19.23;;
77520;SDS011;66633;47.628;19.158;2023-12-20T11:27:33;50.95;;;21.90;;
77520;SDS011;66633;47.628;19.158;2023-12-20T11:29:58;46.08;;;19.85;;
77520;SDS011;66633;47.628;19.158;2023-12-20T11:34:50;53.92;;;21.85;;
77520;SDS011;66633;47.628;19.158;2023-12-20T11:37:15;68.05;;;27.45;;
77520;SDS011;66633;47.628;19.158;2023-12-20T11:39:40;54.50;;;22.93;;
77520;SDS011;66633;47.628;19.158;2023-12-20T11:42:07;53.83;;;22.23;;
77520;SDS011;66633;47.628;19.158;2023-12-20T11:44:35;52.75;;;22.83;;
77520;SDS011;66633;47.628;19.158;2023-12-20T11:47:01;44.65;;;18.85;;
77520;SDS011;66633;47.628;19.158;2023-12-20T11:49:26;50.28;;;21.08;;
77520;SDS011;66633;47.628;19.158;2023-12-20T11:51:54;47.92;;;21.98;;
77520;SDS011;66633;47.628;19.158;2023-12-20T11:54:19;53.30;;;22.38;;
77520;SDS011;66633;47.628;19.158;2023-12-20T11:56:45;52.70;;;21.17;;
77520;SDS011;66633;47.628;19.158;2023-12-20T11:59:10;47.88;;;20.55;;
77520;SDS011;66633;47.628;19.158;2023-12-20T12:01:36;47.78;;;20.95;;
77520;SDS011;66633;47.628;19.158;2023-12-20T12:04:02;48.97;;;21.88;;
77520;SDS011;66633;47.628;19.158;2023-12-20T12:06:27;55.05;;;23.98;;
77520;SDS011;66633;47.628;19.158;2023-12-20T12:08:52;57.20;;;24.67;;
77520;SDS011;66633;47.628;19.158;2023-12-20T12:11:19;46.08;;;21.10;;
77520;SDS011;66633;47.628;19.158;2023-12-20T12:13:44;86.37;;;37.60;;
77520;SDS011;66633;47.628;19.158;2023-12-20T12:16:09;78.63;;;34.33;;
77520;SDS011;66633;47.628;19.158;2023-12-20T12:18:35;90.32;;;42.63;;
77520;SDS011;66633;47.628;19.158;2023-12-20T12:21:01;89.63;;;40.55;;
77520;SDS011;66633;47.628;19.158;2023-12-20T12:23:27;60.10;;;29.20;;
77520;SDS011;66633;47.628;19.158;2023-12-20T12:25:52;53.53;;;25.43;;
77520;SDS011;66633;47.628;19.158;2023-12-20T12:28:20;45.58;;;22.67;;
77520;SDS011;66633;47.628;19.158;2023-12-20T12:30:58;47.72;;;22.92;;
77520;SDS011;66633;47.628;19.158;2023-12-20T12:33:24;53.80;;;26.10;;
77520;SDS011;66633;47.628;19.158;2023-12-20T12:35:49;56.75;;;25.45;;
77520;SDS011;66633;47.628;19.158;2023-12-20T12:38:15;63.20;;;30.20;;
77520;SDS011;66633;47.628;19.158;2023-12-20T12:40:40;55.75;;;26.00;;
77520;SDS011;66633;47.628;19.158;2023-12-20T12:43:08;59.53;;;30.55;;
77520;SDS011;66633;47.628;19.158;2023-12-20T12:45:33;53.50;;;25.13;;
77520;SDS011;66633;47.628;19.158;2023-12-20T12:47:58;70.23;;;34.60;;
77520;SDS011;66633;47.628;19.158;2023-12-20T12:50:24;64.13;;;33.75;;
77520;SDS011;66633;47.628;19.158;2023-12-20T12:52:49;38.38;;;16.90;;
77520;SDS011;66633;47.628;19.158;2023-12-20T12:55:14;36.47;;;18.17;;
77520;SDS011;66633;47.628;19.158;2023-12-20T12:57:40;43.43;;;21.03;;
77520;SDS011;66633;47.628;19.158;2023-12-20T13:00:05;40.58;;;19.17;;
77520;SDS011;66633;47.628;19.158;2023-12-20T13:02:33;33.63;;;17.85;;
77520;SDS011;66633;47.628;19.158;2023-12-20T13:04:58;35.83;;;18.43;;
77520;SDS011;66633;47.628;19.158;2023-12-20T13:07:24;33.75;;;17.08;;
77520;SDS011;66633;47.628;19.158;2023-12-20T13:09:49;27.53;;;14.47;;
77520;SDS011;66633;47.628;19.158;2023-12-20T13:12:14;26.02;;;13.70;;
77520;SDS011;66633;47.628;19.158;2023-12-20T13:14:40;23.55;;;11.25;;
77520;SDS011;66633;47.628;19.158;2023-12-20T13:17:05;24.60;;;12.93;;
77520;SDS011;66633;47.628;19.158;2023-12-20T13:19:31;20.90;;;11.88;;
77520;SDS011;66633;47.628;19.158;2023-12-20T13:21:56;25.27;;;13.07;;
77520;SDS011;66633;47.628;19.158;2023-12-20T13:24:23;20.55;;;10.82;;
77520;SDS011;66633;47.628;19.158;2023-12-20T13:26:48;22.20;;;12.50;;
77520;SDS011;66633;47.628;19.158;2023-12-20T13:29:13;19.20;;;10.50;;
77520;SDS011;66633;47.628;19.158;2023-12-20T13:31:39;16.98;;;9.55;;
77520;SDS011;66633;47.628;19.158;2023-12-20T13:34:05;22.23;;;13.05;;
77520;SDS011;66633;47.628;19.158;2023-12-20T13:36:30;30.42;;;19.02;;
77520;SDS011;66633;47.628;19.158;2023-12-20T13:38:55;21.55;;;10.82;;
77520;SDS011;66633;47.628;19.158;2023-12-20T13:41:20;31.08;;;16.60;;
77520;SDS011;66633;47.628;19.158;2023-12-20T13:43:46;15.30;;;6.87;;
77520;SDS011;66633;47.628;19.158;2023-12-20T13:46:11;10.93;;;5.55;;
77520;SDS011;66633;47.628;19.158;2023-12-20T13:48:37;11.47;;;5.87;;
77520;SDS011;66633;47.628;19.158;2023-12-20T13:51:02;11.77;;;6.25;;
77520;SDS011;66633;47.628;19.158;2023-12-20T13:53:28;18.05;;;10.48;;
77520;SDS011;66633;47.628;19.158;2023-12-20T13:55:53;10.40;;;5.03;;
77520;SDS011;66633;47.628;19.158;2023-12-20T13:58:19;14.77;;;6.70;;
77520;SDS011;66633;47.628;19.158;2023-12-20T14:00:45;9.82;;;4.60;;
77520;SDS011;66633;47.628;19.158;2023-12-20T14:03:10;8.95;;;5.60;;
77520;SDS011;66633;47.628;19.158;2023-12-20T14:05:36;8.38;;;4.35;;
77520;SDS011;66633;47.628;19.158;2023-12-20T14:08:01;7.47;;;3.83;;
77520;SDS011;66633;47.628;19.158;2023-12-20T14:10:26;7.82;;;3.85;;
77520;SDS011;66633;47.628;19.158;2023-12-20T14:12:52;8.63;;;4.10;;